Terminal Aerodrome Forecast
Issued by NWS Grand Forks, ND

Home | Current Version | Previous Version | Graphics & Text | Print | Product List | Glossary On
Versions: 1 2 3 4 5 6 7 8 9 10 11 12 13 14 15 16 17 18 19
000
FTUS43 KFGF 260400 AAA
TAFFAR
TAF AMD
KFAR 260434Z 2605/2624 05009KT P6SM OVC035
      TEMPO 2605/2608 1SM -SN OVC020
     FM260800 36017KT 1SM -SN OVC010
     FM261200 35017KT P6SM BKN015
     FM261500 36015G22KT P6SM FEW020=

USA.gov is the U.S. government's official web portal to all federal, state and local government web resources and services.